FIE321 UDYZ-URSS
Flight info
| Callsign | FIE321 |
|---|---|
| Flight time | 1h 0m |
| Altitude | 36000 |
| Route | SEVAN T916 MATAL DCT TAGAR L850 BANUT BANUT1K |
| Aircraft | A320/M-SDE3FGHIRWY/LB1 |
Departure
| Time | 2026-05-08 11:27 |
|---|---|
| Airport | Zvartnots International Airport (UDYZ) |
Arrival
| Time | 2026-05-08 12:28 |
|---|---|
| Airport | Sochi International Airport (URSS) |
| Time | Latitude | Longitude | Altitude | Speed | Heading |
|---|---|---|---|---|---|
| 2026-05-08 11:09 | 40.15094 | 44.39864 | 2837 ft | 0 kts | 359° |
| 2026-05-08 11:18 | 40.15084 | 44.39865 | 2837 ft | 3 kts | 358° |
| 2026-05-08 11:18 | 40.15064 | 44.39866 | 2837 ft | 3 kts | 356° |
| 2026-05-08 11:18 | 40.15043 | 44.39868 | 2837 ft | 3 kts | 352° |
| 2026-05-08 11:18 | 40.15023 | 44.39872 | 2837 ft | 3 kts | 347° |
| 2026-05-08 11:19 | 40.15004 | 44.39879 | 2837 ft | 3 kts | 333° |
| 2026-05-08 11:19 | 40.14989 | 44.39893 | 2837 ft | 3 kts | 298° |
| 2026-05-08 11:19 | 40.14985 | 44.39904 | 2837 ft | 0 kts | 269° |
| 2026-05-08 11:21 | 40.14985 | 44.39905 | 2837 ft | 0 kts | 269° |
| 2026-05-08 11:21 | 40.14985 | 44.39856 | 2837 ft | 11 kts | 269° |
| 2026-05-08 11:21 | 40.14983 | 44.39738 | 2837 ft | 15 kts | 269° |
| 2026-05-08 11:22 | 40.14981 | 44.39591 | 2837 ft | 18 kts | 269° |
| 2026-05-08 11:22 | 40.14981 | 44.39419 | 2837 ft | 20 kts | 270° |
| 2026-05-08 11:22 | 40.14980 | 44.39223 | 2837 ft | 23 kts | 269° |
| 2026-05-08 11:22 | 40.14979 | 44.39027 | 2837 ft | 21 kts | 270° |
| 2026-05-08 11:23 | 40.14979 | 44.38825 | 2837 ft | 24 kts | 270° |
| 2026-05-08 11:23 | 40.14977 | 44.38624 | 2836 ft | 21 kts | 269° |
| 2026-05-08 11:23 | 40.14974 | 44.38444 | 2837 ft | 15 kts | 259° |
| 2026-05-08 11:23 | 40.14889 | 44.38370 | 2836 ft | 12 kts | 181° |
| 2026-05-08 11:24 | 40.14787 | 44.38370 | 2831 ft | 18 kts | 179° |
| 2026-05-08 11:24 | 40.14727 | 44.38333 | 2828 ft | 10 kts | 267° |
| 2026-05-08 11:24 | 40.14725 | 44.38203 | 2830 ft | 20 kts | 269° |
| 2026-05-08 11:24 | 40.14722 | 44.38006 | 2827 ft | 23 kts | 269° |
| 2026-05-08 11:25 | 40.14723 | 44.37779 | 2824 ft | 27 kts | 269° |
| 2026-05-08 11:25 | 40.14722 | 44.37539 | 2823 ft | 23 kts | 269° |
| 2026-05-08 11:25 | 40.14730 | 44.37442 | 2822 ft | 9 kts | 296° |
| 2026-05-08 11:25 | 40.14741 | 44.37362 | 2821 ft | 10 kts | 217° |
| 2026-05-08 11:26 | 40.14720 | 44.37382 | 2821 ft | 2 kts | 88° |
| 2026-05-08 11:26 | 40.14720 | 44.37383 | 2821 ft | 0 kts | 88° |
| 2026-05-08 11:26 | 40.14720 | 44.37387 | 2821 ft | 1 kts | 88° |
| 2026-05-08 11:26 | 40.14721 | 44.37425 | 2823 ft | 12 kts | 88° |
| 2026-05-08 11:27 | 40.14725 | 44.37884 | 2825 ft | 90 kts | 89° |
| 2026-05-08 11:27 | 40.14730 | 44.38978 | 2830 ft | 148 kts | 89° |
| 2026-05-08 11:27 | 40.14737 | 44.40514 | 3009 ft | 181 kts | 88° |
| 2026-05-08 11:27 | 40.14699 | 44.42144 | 3826 ft | 179 kts | 88° |
| 2026-05-08 11:28 | 40.14696 | 44.43767 | 4636 ft | 179 kts | 91° |
| 2026-05-08 11:28 | 40.14480 | 44.45397 | 5108 ft | 188 kts | 122° |
| 2026-05-08 11:28 | 40.13555 | 44.46604 | 5668 ft | 193 kts | 154° |
| 2026-05-08 11:28 | 40.12248 | 44.46962 | 6298 ft | 196 kts | 186° |
| 2026-05-08 11:29 | 40.10981 | 44.46332 | 6936 ft | 199 kts | 219° |
| 2026-05-08 11:29 | 40.10179 | 44.44872 | 7570 ft | 203 kts | 252° |
| 2026-05-08 11:29 | 40.10138 | 44.43035 | 8196 ft | 208 kts | 287° |
| 2026-05-08 11:29 | 40.10938 | 44.41460 | 8842 ft | 215 kts | 322° |
| 2026-05-08 11:30 | 40.12339 | 44.40786 | 9477 ft | 222 kts | 359° |
| 2026-05-08 11:30 | 40.13806 | 44.41379 | 10112 ft | 227 kts | 37° |
| 2026-05-08 11:30 | 40.14952 | 44.42824 | 10754 ft | 232 kts | 45° |
| 2026-05-08 11:30 | 40.16083 | 44.44372 | 11287 ft | 241 kts | 46° |
| 2026-05-08 11:31 | 40.17268 | 44.46007 | 11733 ft | 256 kts | 46° |
| 2026-05-08 11:31 | 40.18538 | 44.47761 | 12195 ft | 276 kts | 46° |
| 2026-05-08 11:31 | 40.19919 | 44.49657 | 12581 ft | 300 kts | 46° |
| 2026-05-08 11:31 | 40.21423 | 44.51712 | 12902 ft | 328 kts | 45° |
| 2026-05-08 11:32 | 40.23059 | 44.53949 | 13227 ft | 350 kts | 45° |
| 2026-05-08 11:32 | 40.24766 | 44.56278 | 13867 ft | 359 kts | 46° |
| 2026-05-08 11:32 | 40.26507 | 44.58663 | 14670 ft | 365 kts | 46° |
| 2026-05-08 11:32 | 40.28265 | 44.61075 | 15445 ft | 366 kts | 46° |
| 2026-05-08 11:33 | 40.30035 | 44.63509 | 16128 ft | 372 kts | 45° |
| 2026-05-08 11:33 | 40.31833 | 44.65961 | 16802 ft | 376 kts | 46° |
| 2026-05-08 11:33 | 40.33663 | 44.68455 | 17488 ft | 382 kts | 46° |
| 2026-05-08 11:33 | 40.35505 | 44.70978 | 18198 ft | 385 kts | 46° |
| 2026-05-08 11:34 | 40.37340 | 44.73489 | 18845 ft | 388 kts | 46° |
| 2026-05-08 11:34 | 40.39222 | 44.76057 | 19523 ft | 392 kts | 46° |
| 2026-05-08 11:34 | 40.41123 | 44.78650 | 20165 ft | 396 kts | 46° |
| 2026-05-08 11:34 | 40.43043 | 44.81267 | 20787 ft | 400 kts | 46° |
| 2026-05-08 11:35 | 40.44976 | 44.83906 | 21392 ft | 403 kts | 46° |
| 2026-05-08 11:35 | 40.46925 | 44.86568 | 21963 ft | 406 kts | 46° |
| 2026-05-08 11:35 | 40.48891 | 44.89256 | 22520 ft | 410 kts | 46° |
| 2026-05-08 11:35 | 40.50871 | 44.91966 | 23053 ft | 413 kts | 46° |
| 2026-05-08 11:36 | 40.52832 | 44.94753 | 23558 ft | 417 kts | 51° |
| 2026-05-08 11:36 | 40.54490 | 44.97897 | 24066 ft | 420 kts | 60° |
| 2026-05-08 11:36 | 40.55925 | 45.01246 | 24568 ft | 423 kts | 61° |
| 2026-05-08 11:36 | 40.57376 | 45.04633 | 25051 ft | 427 kts | 61° |
| 2026-05-08 11:37 | 40.58842 | 45.08042 | 25520 ft | 430 kts | 61° |
| 2026-05-08 11:37 | 40.60325 | 45.11487 | 26005 ft | 436 kts | 61° |
| 2026-05-08 11:37 | 40.61821 | 45.14970 | 26471 ft | 438 kts | 61° |
| 2026-05-08 11:37 | 40.63327 | 45.18472 | 26906 ft | 442 kts | 61° |
| 2026-05-08 11:38 | 40.64836 | 45.22004 | 27267 ft | 443 kts | 61° |
| 2026-05-08 11:38 | 40.66364 | 45.25569 | 27676 ft | 449 kts | 61° |
| 2026-05-08 11:38 | 40.67947 | 45.29124 | 28104 ft | 452 kts | 56° |
| 2026-05-08 11:38 | 40.70007 | 45.32269 | 28512 ft | 456 kts | 41° |
| 2026-05-08 11:39 | 40.72579 | 45.34716 | 28890 ft | 458 kts | 27° |
| 2026-05-08 11:39 | 40.75523 | 45.36303 | 29279 ft | 459 kts | 13° |
| 2026-05-08 11:39 | 40.78669 | 45.36935 | 29657 ft | 458 kts | 359° |
| 2026-05-08 11:39 | 40.81836 | 45.36585 | 30045 ft | 457 kts | 346° |
| 2026-05-08 11:40 | 40.84845 | 45.35283 | 30421 ft | 455 kts | 332° |
| 2026-05-08 11:40 | 40.87529 | 45.33111 | 30782 ft | 453 kts | 318° |
| 2026-05-08 11:40 | 40.89759 | 45.30198 | 31142 ft | 451 kts | 307° |
| 2026-05-08 11:40 | 40.91792 | 45.27025 | 31526 ft | 453 kts | 307° |
| 2026-05-08 11:41 | 40.93825 | 45.23845 | 32040 ft | 452 kts | 307° |
| 2026-05-08 11:41 | 40.95853 | 45.20672 | 32567 ft | 451 kts | 307° |
| 2026-05-08 11:41 | 40.97878 | 45.17502 | 33087 ft | 450 kts | 307° |
| 2026-05-08 11:41 | 40.99898 | 45.14343 | 33593 ft | 450 kts | 307° |
| 2026-05-08 11:42 | 41.01916 | 45.11186 | 34078 ft | 449 kts | 307° |
| 2026-05-08 11:42 | 41.03932 | 45.08027 | 34590 ft | 448 kts | 307° |
| 2026-05-08 11:42 | 41.05940 | 45.04872 | 35074 ft | 448 kts | 307° |
| 2026-05-08 11:42 | 41.07943 | 45.01713 | 35524 ft | 448 kts | 306° |
| 2026-05-08 11:43 | 41.09950 | 44.98547 | 35944 ft | 449 kts | 307° |
| 2026-05-08 11:43 | 41.11966 | 44.95373 | 36126 ft | 450 kts | 307° |
| 2026-05-08 11:43 | 41.13979 | 44.92202 | 36172 ft | 449 kts | 307° |
| 2026-05-08 11:44 | 41.17962 | 44.85908 | 36171 ft | 448 kts | 307° |
| 2026-05-08 11:44 | 41.21991 | 44.79525 | 36176 ft | 448 kts | 307° |
| 2026-05-08 11:45 | 41.25967 | 44.73218 | 36177 ft | 449 kts | 307° |
| 2026-05-08 11:45 | 41.29976 | 44.66849 | 36172 ft | 449 kts | 307° |
| 2026-05-08 11:46 | 41.33985 | 44.60467 | 36173 ft | 450 kts | 307° |
| 2026-05-08 11:46 | 41.37990 | 44.54077 | 36175 ft | 450 kts | 307° |
| 2026-05-08 11:47 | 41.41995 | 44.47659 | 36178 ft | 451 kts | 307° |
| 2026-05-08 11:47 | 41.46000 | 44.41232 | 36179 ft | 451 kts | 308° |
| 2026-05-08 11:48 | 41.50009 | 44.34799 | 36179 ft | 451 kts | 308° |
| 2026-05-08 11:48 | 41.54015 | 44.28351 | 36177 ft | 451 kts | 308° |
| 2026-05-08 11:49 | 41.58016 | 44.21886 | 36173 ft | 452 kts | 308° |
| 2026-05-08 11:49 | 41.62018 | 44.15407 | 36172 ft | 452 kts | 308° |
| 2026-05-08 11:50 | 41.66019 | 44.08927 | 36177 ft | 452 kts | 308° |
| 2026-05-08 11:50 | 41.70018 | 44.02432 | 36175 ft | 453 kts | 308° |
| 2026-05-08 11:51 | 41.74018 | 43.95918 | 36173 ft | 453 kts | 308° |
| 2026-05-08 11:51 | 41.78017 | 43.89406 | 36175 ft | 453 kts | 308° |
| 2026-05-08 11:52 | 41.82019 | 43.82887 | 36176 ft | 453 kts | 308° |
| 2026-05-08 11:52 | 41.86006 | 43.76353 | 36176 ft | 452 kts | 308° |
| 2026-05-08 11:53 | 41.89978 | 43.69812 | 36179 ft | 452 kts | 308° |
| 2026-05-08 11:53 | 41.93953 | 43.63266 | 36182 ft | 453 kts | 308° |
| 2026-05-08 11:54 | 41.97934 | 43.56718 | 36183 ft | 453 kts | 308° |
| 2026-05-08 11:54 | 42.01909 | 43.50150 | 36186 ft | 453 kts | 308° |
| 2026-05-08 11:55 | 42.05882 | 43.43562 | 36180 ft | 453 kts | 308° |
| 2026-05-08 11:55 | 42.09852 | 43.36969 | 36181 ft | 453 kts | 308° |
| 2026-05-08 11:56 | 42.13814 | 43.30375 | 36180 ft | 453 kts | 308° |
| 2026-05-08 11:56 | 42.17776 | 43.23780 | 36183 ft | 452 kts | 308° |
| 2026-05-08 11:57 | 42.21731 | 43.17172 | 36177 ft | 452 kts | 308° |
| 2026-05-08 11:57 | 42.25671 | 43.10561 | 36173 ft | 452 kts | 308° |
| 2026-05-08 11:58 | 42.28745 | 43.03204 | 36177 ft | 451 kts | 290° |
| 2026-05-08 11:58 | 42.30728 | 42.95151 | 36174 ft | 452 kts | 289° |
| 2026-05-08 11:59 | 42.33693 | 42.83062 | 36170 ft | 452 kts | 289° |
| 2026-05-08 11:59 | 42.35663 | 42.75010 | 36167 ft | 451 kts | 289° |
| 2026-05-08 12:00 | 42.37290 | 42.68307 | 36165 ft | 451 kts | 289° |
| 2026-05-08 12:00 | 42.39558 | 42.58921 | 36165 ft | 452 kts | 289° |
| 2026-05-08 12:01 | 42.41506 | 42.50841 | 36165 ft | 452 kts | 289° |
| 2026-05-08 12:01 | 42.43135 | 42.44066 | 36162 ft | 452 kts | 289° |
| 2026-05-08 12:02 | 42.45075 | 42.35971 | 36165 ft | 452 kts | 289° |
| 2026-05-08 12:02 | 42.47015 | 42.27876 | 36165 ft | 452 kts | 289° |
| 2026-05-08 12:03 | 42.48943 | 42.19777 | 36169 ft | 452 kts | 289° |
| 2026-05-08 12:03 | 42.50849 | 42.11731 | 36171 ft | 451 kts | 288° |
| 2026-05-08 12:04 | 42.52763 | 42.03627 | 36170 ft | 451 kts | 289° |
| 2026-05-08 12:04 | 42.54672 | 41.95525 | 36168 ft | 451 kts | 289° |
| 2026-05-08 12:05 | 42.56527 | 41.87597 | 36167 ft | 450 kts | 289° |
| 2026-05-08 12:05 | 42.58418 | 41.79535 | 36172 ft | 450 kts | 289° |
| 2026-05-08 12:06 | 42.60309 | 41.71434 | 36168 ft | 450 kts | 289° |
| 2026-05-08 12:06 | 42.62187 | 41.63333 | 36175 ft | 450 kts | 289° |
| 2026-05-08 12:07 | 42.64057 | 41.55237 | 36174 ft | 450 kts | 289° |
| 2026-05-08 12:07 | 42.65925 | 41.47129 | 36186 ft | 449 kts | 289° |
| 2026-05-08 12:08 | 42.67787 | 41.39027 | 36199 ft | 449 kts | 289° |
| 2026-05-08 12:08 | 42.69641 | 41.30913 | 36171 ft | 450 kts | 289° |
| 2026-05-08 12:09 | 42.70563 | 41.26867 | 35925 ft | 445 kts | 289° |
| 2026-05-08 12:09 | 42.71466 | 41.22884 | 35673 ft | 437 kts | 289° |
| 2026-05-08 12:09 | 42.72361 | 41.18935 | 35014 ft | 439 kts | 289° |
| 2026-05-08 12:09 | 42.73255 | 41.14994 | 34675 ft | 432 kts | 290° |
| 2026-05-08 12:10 | 42.74139 | 41.11106 | 34213 ft | 429 kts | 290° |
| 2026-05-08 12:10 | 42.75016 | 41.07243 | 33739 ft | 426 kts | 290° |
| 2026-05-08 12:10 | 42.75896 | 41.03361 | 32578 ft | 437 kts | 290° |
| 2026-05-08 12:10 | 42.76815 | 40.99319 | 31062 ft | 457 kts | 290° |
| 2026-05-08 12:11 | 42.77756 | 40.95155 | 30132 ft | 461 kts | 290° |
| 2026-05-08 12:11 | 42.78684 | 40.91004 | 29506 ft | 455 kts | 290° |
| 2026-05-08 12:11 | 42.79594 | 40.86913 | 29111 ft | 445 kts | 290° |
| 2026-05-08 12:11 | 42.80469 | 40.82955 | 28983 ft | 429 kts | 290° |
| 2026-05-08 12:12 | 42.81301 | 40.79188 | 28856 ft | 414 kts | 290° |
| 2026-05-08 12:12 | 42.82120 | 40.75494 | 28717 ft | 401 kts | 291° |
| 2026-05-08 12:12 | 42.82918 | 40.71889 | 28417 ft | 394 kts | 291° |
| 2026-05-08 12:12 | 42.83707 | 40.68338 | 28056 ft | 389 kts | 290° |
| 2026-05-08 12:13 | 42.84489 | 40.64826 | 27669 ft | 386 kts | 290° |
| 2026-05-08 12:13 | 42.85264 | 40.61344 | 27230 ft | 381 kts | 290° |
| 2026-05-08 12:13 | 42.86027 | 40.57904 | 26418 ft | 377 kts | 290° |
| 2026-05-08 12:13 | 42.86778 | 40.54501 | 25611 ft | 373 kts | 289° |
| 2026-05-08 12:14 | 42.87521 | 40.51129 | 24809 ft | 369 kts | 290° |
| 2026-05-08 12:14 | 42.88255 | 40.47791 | 23985 ft | 366 kts | 289° |
| 2026-05-08 12:14 | 42.88980 | 40.44488 | 23169 ft | 362 kts | 289° |
| 2026-05-08 12:14 | 42.89697 | 40.41221 | 22377 ft | 358 kts | 289° |
| 2026-05-08 12:15 | 42.90403 | 40.37989 | 21614 ft | 353 kts | 289° |
| 2026-05-08 12:15 | 42.91098 | 40.34797 | 20833 ft | 349 kts | 289° |
| 2026-05-08 12:15 | 42.91789 | 40.31632 | 20357 ft | 347 kts | 289° |
| 2026-05-08 12:15 | 42.92473 | 40.28502 | 19958 ft | 343 kts | 289° |
| 2026-05-08 12:16 | 42.93154 | 40.25381 | 19518 ft | 342 kts | 288° |
| 2026-05-08 12:16 | 42.93829 | 40.22276 | 19014 ft | 342 kts | 288° |
| 2026-05-08 12:16 | 42.94508 | 40.19149 | 18387 ft | 345 kts | 288° |
| 2026-05-08 12:16 | 42.95192 | 40.15994 | 17758 ft | 348 kts | 288° |
| 2026-05-08 12:17 | 42.95869 | 40.12861 | 17135 ft | 347 kts | 288° |
| 2026-05-08 12:17 | 42.96546 | 40.09716 | 16495 ft | 336 kts | 288° |
| 2026-05-08 12:17 | 42.97195 | 40.06693 | 15869 ft | 327 kts | 288° |
| 2026-05-08 12:17 | 42.97826 | 40.03750 | 15245 ft | 320 kts | 288° |
| 2026-05-08 12:18 | 42.98445 | 40.00867 | 14617 ft | 314 kts | 287° |
| 2026-05-08 12:18 | 42.99046 | 39.98070 | 14001 ft | 309 kts | 288° |
| 2026-05-08 12:18 | 42.99677 | 39.95246 | 13367 ft | 305 kts | 288° |
| 2026-05-08 12:18 | 43.00310 | 39.92533 | 12749 ft | 302 kts | 289° |
| 2026-05-08 12:19 | 43.00963 | 39.89779 | 12112 ft | 299 kts | 289° |
| 2026-05-08 12:19 | 43.01595 | 39.87120 | 11492 ft | 296 kts | 289° |
| 2026-05-08 12:19 | 43.02224 | 39.84453 | 10866 ft | 293 kts | 288° |
| 2026-05-08 12:19 | 43.02843 | 39.81814 | 10253 ft | 290 kts | 288° |
| 2026-05-08 12:20 | 43.03455 | 39.79203 | 10030 ft | 289 kts | 289° |
| 2026-05-08 12:20 | 43.04298 | 39.76750 | 9857 ft | 279 kts | 307° |
| 2026-05-08 12:20 | 43.05663 | 39.74949 | 9334 ft | 271 kts | 329° |
| 2026-05-08 12:20 | 43.07392 | 39.74020 | 8783 ft | 266 kts | 351° |
| 2026-05-08 12:21 | 43.09223 | 39.74024 | 8229 ft | 263 kts | 11° |
| 2026-05-08 12:21 | 43.10958 | 39.74757 | 7676 ft | 260 kts | 18° |
| 2026-05-08 12:21 | 43.12664 | 39.75549 | 7125 ft | 258 kts | 18° |
| 2026-05-08 12:21 | 43.14355 | 39.76330 | 6576 ft | 256 kts | 18° |
| 2026-05-08 12:22 | 43.16041 | 39.77102 | 6020 ft | 254 kts | 18° |
| 2026-05-08 12:22 | 43.17712 | 39.77863 | 5471 ft | 252 kts | 18° |
| 2026-05-08 12:22 | 43.19372 | 39.78622 | 4919 ft | 250 kts | 18° |
| 2026-05-08 12:22 | 43.21013 | 39.79377 | 4352 ft | 248 kts | 18° |
| 2026-05-08 12:23 | 43.22637 | 39.80127 | 3814 ft | 245 kts | 18° |
| 2026-05-08 12:23 | 43.24242 | 39.80868 | 3274 ft | 242 kts | 18° |
| 2026-05-08 12:23 | 43.25827 | 39.81604 | 2774 ft | 238 kts | 18° |
| 2026-05-08 12:23 | 43.27345 | 39.82313 | 2528 ft | 222 kts | 19° |
| 2026-05-08 12:24 | 43.28684 | 39.83162 | 2410 ft | 203 kts | 27° |
| 2026-05-08 12:24 | 43.29869 | 39.84068 | 2315 ft | 189 kts | 28° |
| 2026-05-08 12:24 | 43.30996 | 39.84961 | 2233 ft | 185 kts | 28° |
| 2026-05-08 12:24 | 43.32103 | 39.85844 | 2144 ft | 183 kts | 28° |
| 2026-05-08 12:25 | 43.33206 | 39.86723 | 2069 ft | 184 kts | 28° |
| 2026-05-08 12:25 | 43.34313 | 39.87596 | 2002 ft | 183 kts | 27° |
| 2026-05-08 12:25 | 43.35431 | 39.88451 | 1852 ft | 183 kts | 27° |
| 2026-05-08 12:25 | 43.36512 | 39.89265 | 1572 ft | 171 kts | 26° |
| 2026-05-08 12:26 | 43.37504 | 39.90011 | 1339 ft | 156 kts | 26° |
| 2026-05-08 12:26 | 43.38403 | 39.90685 | 1145 ft | 141 kts | 25° |
| 2026-05-08 12:26 | 43.39248 | 39.91318 | 966 ft | 136 kts | 25° |
| 2026-05-08 12:26 | 43.40072 | 39.91935 | 799 ft | 134 kts | 25° |
| 2026-05-08 12:27 | 43.40888 | 39.92547 | 633 ft | 133 kts | 25° |
| 2026-05-08 12:27 | 43.41700 | 39.93156 | 467 ft | 132 kts | 26° |
| 2026-05-08 12:27 | 43.42510 | 39.93758 | 309 ft | 132 kts | 26° |
| 2026-05-08 12:27 | 43.43313 | 39.94367 | 148 ft | 132 kts | 27° |
| 2026-05-08 12:28 | 43.44083 | 39.94946 | 78 ft | 101 kts | 29° |
| 2026-05-08 12:28 | 43.44474 | 39.95243 | 81 ft | 30 kts | 28° |
| 2026-05-08 12:28 | 43.44628 | 39.95293 | 88 ft | 21 kts | 358° |
| 2026-05-08 12:28 | 43.44744 | 39.95278 | 84 ft | 19 kts | 352° |
| 2026-05-08 12:29 | 43.44871 | 39.95207 | 89 ft | 15 kts | 335° |
| 2026-05-08 12:29 | 43.44939 | 39.95143 | 86 ft | 10 kts | 289° |
| 2026-05-08 12:29 | 43.44953 | 39.95009 | 85 ft | 17 kts | 256° |
| 2026-05-08 12:29 | 43.44893 | 39.94832 | 68 ft | 24 kts | 245° |
| 2026-05-08 12:30 | 43.44824 | 39.94629 | 65 ft | 14 kts | 245° |
| 2026-05-08 12:30 | 43.44786 | 39.94520 | 72 ft | 5 kts | 244° |
| 2026-05-08 12:30 | 43.44797 | 39.94468 | 71 ft | 8 kts | 325° |
| 2026-05-08 12:30 | 43.44824 | 39.94449 | 75 ft | 5 kts | 335° |
| 2026-05-08 12:31 | 43.44835 | 39.94442 | 75 ft | 0 kts | 335° |
| 2026-05-08 12:43 | 43.44835 | 39.94443 | 75 ft | 0 kts | 335° |
| 2026-05-08 12:43 | 43.44834 | 39.94443 | 75 ft | 0 kts | 335° |